sensor_id;sensor_type;location;lat;lon;timestamp;P1;durP1;ratioP1;P2;durP2;ratioP2
74551;SDS011;63025;55.472;38.432;2022-09-09T00:01:52;5.55;;;2.80;;
74551;SDS011;63025;55.472;38.432;2022-09-09T00:04:38;4.43;;;2.40;;
74551;SDS011;63025;55.472;38.432;2022-09-09T00:07:10;5.20;;;2.65;;
74551;SDS011;63025;55.472;38.432;2022-09-09T00:14:58;7.38;;;3.75;;
74551;SDS011;63025;55.472;38.432;2022-09-09T00:20:45;6.05;;;3.50;;
74551;SDS011;63025;55.472;38.432;2022-09-09T00:23:24;6.22;;;3.28;;
74551;SDS011;63025;55.472;38.432;2022-09-09T00:28:24;8.68;;;3.63;;
74551;SDS011;63025;55.472;38.432;2022-09-09T00:30:52;5.88;;;3.47;;
74551;SDS011;63025;55.472;38.432;2022-09-09T00:33:19;8.27;;;3.90;;
74551;SDS011;63025;55.472;38.432;2022-09-09T00:35:49;6.18;;;3.60;;
74551;SDS011;63025;55.472;38.432;2022-09-09T00:38:18;6.60;;;3.22;;
74551;SDS011;63025;55.472;38.432;2022-09-09T00:40:50;6.90;;;3.50;;
74551;SDS011;63025;55.472;38.432;2022-09-09T00:45:59;7.13;;;4.10;;
74551;SDS011;63025;55.472;38.432;2022-09-09T00:48:44;8.00;;;4.30;;
74551;SDS011;63025;55.472;38.432;2022-09-09T00:51:15;5.50;;;3.33;;
74551;SDS011;63025;55.472;38.432;2022-09-09T00:56:27;5.82;;;3.15;;
74551;SDS011;63025;55.472;38.432;2022-09-09T00:59:10;5.38;;;3.17;;
74551;SDS011;63025;55.472;38.432;2022-09-09T01:01:56;6.05;;;3.22;;
74551;SDS011;63025;55.472;38.432;2022-09-09T01:04:25;7.13;;;3.15;;
74551;SDS011;63025;55.472;38.432;2022-09-09T01:09:57;6.82;;;3.50;;
74551;SDS011;63025;55.472;38.432;2022-09-09T01:15:25;5.28;;;2.80;;
74551;SDS011;63025;55.472;38.432;2022-09-09T01:28:36;8.35;;;4.30;;
74551;SDS011;63025;55.472;38.432;2022-09-09T01:31:09;10.35;;;4.82;;
74551;SDS011;63025;55.472;38.432;2022-09-09T01:33:43;8.27;;;4.60;;
74551;SDS011;63025;55.472;38.432;2022-09-09T01:36:10;7.35;;;4.63;;
74551;SDS011;63025;55.472;38.432;2022-09-09T01:38:46;6.63;;;4.25;;
74551;SDS011;63025;55.472;38.432;2022-09-09T01:41:12;7.75;;;4.22;;
74551;SDS011;63025;55.472;38.432;2022-09-09T01:43:44;6.43;;;3.20;;
74551;SDS011;63025;55.472;38.432;2022-09-09T01:46:10;5.43;;;3.30;;
74551;SDS011;63025;55.472;38.432;2022-09-09T01:48:38;7.43;;;3.83;;
74551;SDS011;63025;55.472;38.432;2022-09-09T01:51:08;7.68;;;3.95;;
74551;SDS011;63025;55.472;38.432;2022-09-09T01:53:36;6.13;;;3.30;;
74551;SDS011;63025;55.472;38.432;2022-09-09T02:04:28;6.50;;;2.90;;
74551;SDS011;63025;55.472;38.432;2022-09-09T02:07:26;6.03;;;3.35;;
74551;SDS011;63025;55.472;38.432;2022-09-09T02:13:12;5.43;;;2.88;;
74551;SDS011;63025;55.472;38.432;2022-09-09T02:15:57;6.70;;;3.33;;
74551;SDS011;63025;55.472;38.432;2022-09-09T02:18:55;4.32;;;2.60;;
74551;SDS011;63025;55.472;38.432;2022-09-09T02:21:37;3.67;;;2.13;;
74551;SDS011;63025;55.472;38.432;2022-09-09T02:24:04;6.22;;;2.90;;
74551;SDS011;63025;55.472;38.432;2022-09-09T02:26:38;5.72;;;2.70;;
74551;SDS011;63025;55.472;38.432;2022-09-09T02:29:09;8.45;;;2.90;;
74551;SDS011;63025;55.472;38.432;2022-09-09T02:31:41;5.07;;;2.47;;
74551;SDS011;63025;55.472;38.432;2022-09-09T02:34:14;4.35;;;2.38;;
74551;SDS011;63025;55.472;38.432;2022-09-09T02:36:45;4.80;;;2.40;;
74551;SDS011;63025;55.472;38.432;2022-09-09T02:39:12;4.93;;;2.53;;
74551;SDS011;63025;55.472;38.432;2022-09-09T02:41:40;4.68;;;2.25;;
74551;SDS011;63025;55.472;38.432;2022-09-09T02:44:11;4.25;;;2.22;;
74551;SDS011;63025;55.472;38.432;2022-09-09T02:52:32;3.97;;;2.30;;
74551;SDS011;63025;55.472;38.432;2022-09-09T02:55:35;3.72;;;2.20;;
74551;SDS011;63025;55.472;38.432;2022-09-09T02:58:12;3.88;;;2.22;;
74551;SDS011;63025;55.472;38.432;2022-09-09T03:00:46;5.80;;;2.47;;
74551;SDS011;63025;55.472;38.432;2022-09-09T03:03:14;4.15;;;2.13;;
74551;SDS011;63025;55.472;38.432;2022-09-09T03:05:41;4.82;;;2.53;;
74551;SDS011;63025;55.472;38.432;2022-09-09T03:08:08;4.80;;;3.17;;
74551;SDS011;63025;55.472;38.432;2022-09-09T03:10:35;5.35;;;2.70;;
74551;SDS011;63025;55.472;38.432;2022-09-09T03:13:02;4.20;;;2.50;;
74551;SDS011;63025;55.472;38.432;2022-09-09T03:15:33;6.00;;;2.80;;
74551;SDS011;63025;55.472;38.432;2022-09-09T03:17:59;5.70;;;2.80;;
74551;SDS011;63025;55.472;38.432;2022-09-09T03:20:26;6.80;;;3.20;;
74551;SDS011;63025;55.472;38.432;2022-09-09T03:22:53;5.93;;;3.10;;
74551;SDS011;63025;55.472;38.432;2022-09-09T03:25:20;6.85;;;3.33;;
74551;SDS011;63025;55.472;38.432;2022-09-09T03:27:51;6.90;;;3.42;;
74551;SDS011;63025;55.472;38.432;2022-09-09T03:30:21;6.25;;;3.63;;
74551;SDS011;63025;55.472;38.432;2022-09-09T03:32:48;7.40;;;3.22;;
74551;SDS011;63025;55.472;38.432;2022-09-09T03:35:14;7.97;;;3.72;;
74551;SDS011;63025;55.472;38.432;2022-09-09T03:37:41;7.47;;;3.90;;
74551;SDS011;63025;55.472;38.432;2022-09-09T03:40:08;7.22;;;3.67;;
74551;SDS011;63025;55.472;38.432;2022-09-09T03:42:37;6.22;;;3.50;;
74551;SDS011;63025;55.472;38.432;2022-09-09T03:45:04;9.88;;;3.75;;
74551;SDS011;63025;55.472;38.432;2022-09-09T03:47:32;5.38;;;3.42;;
74551;SDS011;63025;55.472;38.432;2022-09-09T03:50:04;7.07;;;3.35;;
74551;SDS011;63025;55.472;38.432;2022-09-09T03:52:35;6.38;;;3.45;;
74551;SDS011;63025;55.472;38.432;2022-09-09T03:55:09;5.68;;;2.78;;
74551;SDS011;63025;55.472;38.432;2022-09-09T03:57:36;5.30;;;3.08;;
74551;SDS011;63025;55.472;38.432;2022-09-09T04:00:06;6.55;;;3.42;;
74551;SDS011;63025;55.472;38.432;2022-09-09T04:02:41;6.88;;;3.00;;
74551;SDS011;63025;55.472;38.432;2022-09-09T04:05:12;6.95;;;3.40;;
74551;SDS011;63025;55.472;38.432;2022-09-09T04:07:41;6.57;;;3.00;;
74551;SDS011;63025;55.472;38.432;2022-09-09T04:10:07;5.25;;;2.90;;
74551;SDS011;63025;55.472;38.432;2022-09-09T04:12:35;5.72;;;3.22;;
74551;SDS011;63025;55.472;38.432;2022-09-09T04:15:01;6.32;;;3.55;;
74551;SDS011;63025;55.472;38.432;2022-09-09T04:17:28;5.90;;;2.90;;
74551;SDS011;63025;55.472;38.432;2022-09-09T04:19:54;6.68;;;3.08;;
74551;SDS011;63025;55.472;38.432;2022-09-09T04:22:21;6.13;;;3.58;;
74551;SDS011;63025;55.472;38.432;2022-09-09T04:24:48;7.38;;;3.63;;
74551;SDS011;63025;55.472;38.432;2022-09-09T04:27:14;6.90;;;3.58;;
74551;SDS011;63025;55.472;38.432;2022-09-09T04:29:40;7.80;;;4.03;;
74551;SDS011;63025;55.472;38.432;2022-09-09T04:32:07;5.93;;;3.40;;
74551;SDS011;63025;55.472;38.432;2022-09-09T04:34:33;7.18;;;3.38;;
74551;SDS011;63025;55.472;38.432;2022-09-09T04:36:58;5.53;;;3.40;;
74551;SDS011;63025;55.472;38.432;2022-09-09T04:39:25;6.35;;;3.25;;
74551;SDS011;63025;55.472;38.432;2022-09-09T04:41:50;6.45;;;3.38;;
74551;SDS011;63025;55.472;38.432;2022-09-09T04:44:16;5.40;;;2.92;;
74551;SDS011;63025;55.472;38.432;2022-09-09T04:46:42;4.20;;;2.70;;
74551;SDS011;63025;55.472;38.432;2022-09-09T04:49:09;4.78;;;2.95;;
74551;SDS011;63025;55.472;38.432;2022-09-09T04:51:35;5.63;;;2.88;;
74551;SDS011;63025;55.472;38.432;2022-09-09T04:54:01;4.65;;;2.60;;
74551;SDS011;63025;55.472;38.432;2022-09-09T04:56:27;5.53;;;2.63;;
74551;SDS011;63025;55.472;38.432;2022-09-09T04:58:57;5.63;;;2.80;;
74551;SDS011;63025;55.472;38.432;2022-09-09T05:01:33;4.68;;;2.60;;
74551;SDS011;63025;55.472;38.432;2022-09-09T05:04:02;4.78;;;2.65;;
74551;SDS011;63025;55.472;38.432;2022-09-09T05:06:28;5.07;;;2.78;;
74551;SDS011;63025;55.472;38.432;2022-09-09T05:08:57;5.47;;;2.40;;
74551;SDS011;63025;55.472;38.432;2022-09-09T05:11:28;5.15;;;2.45;;
74551;SDS011;63025;55.472;38.432;2022-09-09T05:14:19;4.38;;;2.30;;
74551;SDS011;63025;55.472;38.432;2022-09-09T05:16:45;4.50;;;2.20;;
74551;SDS011;63025;55.472;38.432;2022-09-09T05:19:13;4.20;;;2.40;;
74551;SDS011;63025;55.472;38.432;2022-09-09T05:21:45;3.93;;;2.07;;
74551;SDS011;63025;55.472;38.432;2022-09-09T05:24:13;4.60;;;1.98;;
74551;SDS011;63025;55.472;38.432;2022-09-09T05:26:39;3.53;;;2.00;;
74551;SDS011;63025;55.472;38.432;2022-09-09T05:29:05;4.03;;;2.20;;
74551;SDS011;63025;55.472;38.432;2022-09-09T05:31:31;3.90;;;2.00;;
74551;SDS011;63025;55.472;38.432;2022-09-09T05:34:01;4.63;;;1.95;;
74551;SDS011;63025;55.472;38.432;2022-09-09T05:36:27;3.03;;;1.60;;
74551;SDS011;63025;55.472;38.432;2022-09-09T05:38:55;3.83;;;1.92;;
74551;SDS011;63025;55.472;38.432;2022-09-09T05:41:21;4.57;;;1.95;;
74551;SDS011;63025;55.472;38.432;2022-09-09T05:43:49;3.45;;;1.63;;
74551;SDS011;63025;55.472;38.432;2022-09-09T05:46:17;4.03;;;1.50;;
74551;SDS011;63025;55.472;38.432;2022-09-09T05:48:47;4.70;;;1.80;;
74551;SDS011;63025;55.472;38.432;2022-09-09T05:51:22;3.13;;;1.50;;
74551;SDS011;63025;55.472;38.432;2022-09-09T05:53:50;3.45;;;1.60;;
74551;SDS011;63025;55.472;38.432;2022-09-09T05:56:19;4.50;;;1.63;;
74551;SDS011;63025;55.472;38.432;2022-09-09T05:58:48;4.43;;;1.90;;
74551;SDS011;63025;55.472;38.432;2022-09-09T06:01:17;3.67;;;1.80;;
74551;SDS011;63025;55.472;38.432;2022-09-09T06:03:45;3.08;;;1.40;;
74551;SDS011;63025;55.472;38.432;2022-09-09T06:06:13;4.28;;;1.40;;
74551;SDS011;63025;55.472;38.432;2022-09-09T06:08:46;3.67;;;1.45;;
74551;SDS011;63025;55.472;38.432;2022-09-09T06:11:16;3.17;;;1.33;;
74551;SDS011;63025;55.472;38.432;2022-09-09T06:13:42;3.17;;;1.38;;
74551;SDS011;63025;55.472;38.432;2022-09-09T06:16:09;3.65;;;1.25;;
74551;SDS011;63025;55.472;38.432;2022-09-09T06:18:37;3.83;;;1.48;;
74551;SDS011;63025;55.472;38.432;2022-09-09T06:21:04;4.68;;;1.55;;
74551;SDS011;63025;55.472;38.432;2022-09-09T06:23:40;4.03;;;1.50;;
74551;SDS011;63025;55.472;38.432;2022-09-09T06:26:07;3.72;;;1.10;;
74551;SDS011;63025;55.472;38.432;2022-09-09T06:28:36;4.00;;;0.90;;
74551;SDS011;63025;55.472;38.432;2022-09-09T06:31:03;4.50;;;1.20;;
74551;SDS011;63025;55.472;38.432;2022-09-09T06:33:31;2.47;;;1.00;;
74551;SDS011;63025;55.472;38.432;2022-09-09T06:36:01;2.72;;;1.10;;
74551;SDS011;63025;55.472;38.432;2022-09-09T06:38:29;1.85;;;0.80;;
74551;SDS011;63025;55.472;38.432;2022-09-09T06:40:56;1.65;;;0.80;;
74551;SDS011;63025;55.472;38.432;2022-09-09T06:43:24;2.50;;;0.80;;
74551;SDS011;63025;55.472;38.432;2022-09-09T06:46:12;1.73;;;0.80;;
74551;SDS011;63025;55.472;38.432;2022-09-09T06:48:44;3.83;;;0.80;;
74551;SDS011;63025;55.472;38.432;2022-09-09T06:53:53;2.15;;;0.60;;
74551;SDS011;63025;55.472;38.432;2022-09-09T06:56:26;1.23;;;0.60;;
74551;SDS011;63025;55.472;38.432;2022-09-09T06:58:56;1.58;;;0.60;;
74551;SDS011;63025;55.472;38.432;2022-09-09T07:01:32;1.88;;;0.60;;
74551;SDS011;63025;55.472;38.432;2022-09-09T07:04:02;3.20;;;0.73;;
74551;SDS011;63025;55.472;38.432;2022-09-09T07:06:33;0.95;;;0.50;;
74551;SDS011;63025;55.472;38.432;2022-09-09T07:09:06;1.35;;;0.50;;
74551;SDS011;63025;55.472;38.432;2022-09-09T07:11:37;0.93;;;0.50;;
74551;SDS011;63025;55.472;38.432;2022-09-09T07:14:04;2.05;;;0.80;;
74551;SDS011;63025;55.472;38.432;2022-09-09T07:16:31;0.98;;;0.50;;
74551;SDS011;63025;55.472;38.432;2022-09-09T07:19:01;0.88;;;0.50;;
74551;SDS011;63025;55.472;38.432;2022-09-09T07:21:28;2.05;;;0.50;;
74551;SDS011;63025;55.472;38.432;2022-09-09T07:23:56;1.00;;;0.57;;
74551;SDS011;63025;55.472;38.432;2022-09-09T07:26:23;1.67;;;0.70;;
74551;SDS011;63025;55.472;38.432;2022-09-09T07:28:52;1.88;;;0.70;;
74551;SDS011;63025;55.472;38.432;2022-09-09T07:31:21;1.35;;;0.60;;
74551;SDS011;63025;55.472;38.432;2022-09-09T07:33:49;2.03;;;0.60;;
74551;SDS011;63025;55.472;38.432;2022-09-09T07:36:16;1.08;;;0.60;;
74551;SDS011;63025;55.472;38.432;2022-09-09T07:38:47;1.15;;;0.60;;
74551;SDS011;63025;55.472;38.432;2022-09-09T07:41:19;1.77;;;0.60;;
74551;SDS011;63025;55.472;38.432;2022-09-09T07:43:49;1.58;;;0.70;;
74551;SDS011;63025;55.472;38.432;2022-09-09T07:46:16;1.30;;;0.65;;
74551;SDS011;63025;55.472;38.432;2022-09-09T07:48:50;1.85;;;0.70;;
74551;SDS011;63025;55.472;38.432;2022-09-09T07:53:57;1.90;;;0.65;;
74551;SDS011;63025;55.472;38.432;2022-09-09T07:56:25;1.25;;;0.70;;
74551;SDS011;63025;55.472;38.432;2022-09-09T07:58:54;1.52;;;0.68;;
74551;SDS011;63025;55.472;38.432;2022-09-09T08:03:56;2.22;;;1.02;;
74551;SDS011;63025;55.472;38.432;2022-09-09T08:06:25;2.10;;;0.80;;
74551;SDS011;63025;55.472;38.432;2022-09-09T08:08:53;1.63;;;0.82;;
74551;SDS011;63025;55.472;38.432;2022-09-09T08:11:22;2.60;;;1.35;;
74551;SDS011;63025;55.472;38.432;2022-09-09T08:13:49;2.20;;;0.82;;
74551;SDS011;63025;55.472;38.432;2022-09-09T08:16:18;2.45;;;0.80;;
74551;SDS011;63025;55.472;38.432;2022-09-09T08:18:48;2.65;;;1.10;;
74551;SDS011;63025;55.472;38.432;2022-09-09T08:21:15;1.65;;;0.70;;
74551;SDS011;63025;55.472;38.432;2022-09-09T08:23:44;4.50;;;1.90;;
74551;SDS011;63025;55.472;38.432;2022-09-09T08:26:12;4.57;;;1.00;;
74551;SDS011;63025;55.472;38.432;2022-09-09T08:28:40;3.25;;;0.90;;
74551;SDS011;63025;55.472;38.432;2022-09-09T08:33:32;1.92;;;0.95;;
74551;SDS011;63025;55.472;38.432;2022-09-09T08:35:59;2.15;;;0.90;;
74551;SDS011;63025;55.472;38.432;2022-09-09T08:38:25;2.78;;;1.00;;
74551;SDS011;63025;55.472;38.432;2022-09-09T08:40:50;2.45;;;1.10;;
74551;SDS011;63025;55.472;38.432;2022-09-09T08:43:25;3.95;;;1.30;;
74551;SDS011;63025;55.472;38.432;2022-09-09T08:45:58;4.30;;;2.30;;
74551;SDS011;63025;55.472;38.432;2022-09-09T08:48:42;2.55;;;1.00;;
74551;SDS011;63025;55.472;38.432;2022-09-09T08:51:17;2.05;;;0.80;;
74551;SDS011;63025;55.472;38.432;2022-09-09T08:53:46;1.77;;;0.80;;
74551;SDS011;63025;55.472;38.432;2022-09-09T08:56:24;4.93;;;1.50;;
74551;SDS011;63025;55.472;38.432;2022-09-09T08:58:55;1.98;;;1.02;;
74551;SDS011;63025;55.472;38.432;2022-09-09T09:07:34;4.25;;;1.40;;
74551;SDS011;63025;55.472;38.432;2022-09-09T09:10:26;2.80;;;1.10;;
74551;SDS011;63025;55.472;38.432;2022-09-09T20:08:48;99.88;;;47.53;;
74551;SDS011;63025;55.472;38.432;2022-09-09T20:11:15;90.72;;;47.08;;
74551;SDS011;63025;55.472;38.432;2022-09-09T20:13:42;112.22;;;55.80;;
74551;SDS011;63025;55.472;38.432;2022-09-09T20:16:09;107.57;;;52.08;;
74551;SDS011;63025;55.472;38.432;2022-09-09T20:18:40;108.95;;;55.33;;
74551;SDS011;63025;55.472;38.432;2022-09-09T20:21:11;126.53;;;61.70;;
74551;SDS011;63025;55.472;38.432;2022-09-09T20:23:39;122.07;;;59.35;;
74551;SDS011;63025;55.472;38.432;2022-09-09T20:26:07;112.80;;;58.05;;
74551;SDS011;63025;55.472;38.432;2022-09-09T20:28:38;96.65;;;46.97;;
74551;SDS011;63025;55.472;38.432;2022-09-09T20:31:14;106.75;;;53.13;;
74551;SDS011;63025;55.472;38.432;2022-09-09T20:33:44;89.97;;;45.35;;
74551;SDS011;63025;55.472;38.432;2022-09-09T20:39:03;88.07;;;44.15;;
74551;SDS011;63025;55.472;38.432;2022-09-09T20:41:30;69.28;;;35.95;;
74551;SDS011;63025;55.472;38.432;2022-09-09T20:43:57;80.78;;;39.22;;
74551;SDS011;63025;55.472;38.432;2022-09-09T20:46:29;70.13;;;34.97;;
74551;SDS011;63025;55.472;38.432;2022-09-09T20:48:57;108.47;;;42.10;;
74551;SDS011;63025;55.472;38.432;2022-09-09T20:51:24;88.47;;;40.88;;
74551;SDS011;63025;55.472;38.432;2022-09-09T20:53:52;88.90;;;41.78;;
74551;SDS011;63025;55.472;38.432;2022-09-09T20:56:25;88.53;;;42.50;;
74551;SDS011;63025;55.472;38.432;2022-09-09T20:58:52;79.30;;;38.92;;
74551;SDS011;63025;55.472;38.432;2022-09-09T21:01:19;76.50;;;38.28;;
74551;SDS011;63025;55.472;38.432;2022-09-09T21:03:45;82.85;;;40.35;;
74551;SDS011;63025;55.472;38.432;2022-09-09T21:06:12;71.97;;;36.80;;
74551;SDS011;63025;55.472;38.432;2022-09-09T21:08:42;69.18;;;35.92;;
74551;SDS011;63025;55.472;38.432;2022-09-09T21:11:08;66.50;;;35.95;;
74551;SDS011;63025;55.472;38.432;2022-09-09T21:13:35;69.35;;;34.78;;
74551;SDS011;63025;55.472;38.432;2022-09-09T21:16:02;66.35;;;34.60;;
74551;SDS011;63025;55.472;38.432;2022-09-09T21:18:30;60.92;;;33.35;;
74551;SDS011;63025;55.472;38.432;2022-09-09T21:20:56;61.20;;;33.17;;
74551;SDS011;63025;55.472;38.432;2022-09-09T21:23:22;57.40;;;30.90;;
74551;SDS011;63025;55.472;38.432;2022-09-09T21:25:49;59.60;;;30.98;;
74551;SDS011;63025;55.472;38.432;2022-09-09T21:28:15;49.53;;;26.95;;
74551;SDS011;63025;55.472;38.432;2022-09-09T21:30:45;49.17;;;26.83;;
74551;SDS011;63025;55.472;38.432;2022-09-09T21:33:13;55.45;;;29.95;;
74551;SDS011;63025;55.472;38.432;2022-09-09T21:35:39;60.20;;;31.13;;
74551;SDS011;63025;55.472;38.432;2022-09-09T21:38:06;62.47;;;35.30;;
74551;SDS011;63025;55.472;38.432;2022-09-09T21:40:36;66.85;;;38.13;;
74551;SDS011;63025;55.472;38.432;2022-09-09T21:43:06;59.22;;;32.88;;
74551;SDS011;63025;55.472;38.432;2022-09-09T21:45:36;63.03;;;33.47;;
74551;SDS011;63025;55.472;38.432;2022-09-09T21:48:04;69.40;;;35.65;;
74551;SDS011;63025;55.472;38.432;2022-09-09T21:50:34;70.57;;;34.55;;
74551;SDS011;63025;55.472;38.432;2022-09-09T21:53:00;68.82;;;33.53;;
74551;SDS011;63025;55.472;38.432;2022-09-09T21:55:27;54.45;;;28.30;;
74551;SDS011;63025;55.472;38.432;2022-09-09T21:57:52;64.88;;;29.83;;
74551;SDS011;63025;55.472;38.432;2022-09-09T22:00:19;63.13;;;30.42;;
74551;SDS011;63025;55.472;38.432;2022-09-09T22:02:44;57.92;;;29.40;;
74551;SDS011;63025;55.472;38.432;2022-09-09T22:05:11;51.30;;;26.73;;
74551;SDS011;63025;55.472;38.432;2022-09-09T22:07:37;48.92;;;23.98;;
74551;SDS011;63025;55.472;38.432;2022-09-09T22:10:03;49.95;;;25.38;;
74551;SDS011;63025;55.472;38.432;2022-09-09T22:12:30;44.60;;;24.40;;
74551;SDS011;63025;55.472;38.432;2022-09-09T22:14:56;44.03;;;23.25;;
74551;SDS011;63025;55.472;38.432;2022-09-09T22:17:22;46.65;;;24.58;;
74551;SDS011;63025;55.472;38.432;2022-09-09T22:19:49;43.20;;;22.85;;
74551;SDS011;63025;55.472;38.432;2022-09-09T22:22:16;43.03;;;21.95;;
74551;SDS011;63025;55.472;38.432;2022-09-09T22:24:45;38.88;;;19.92;;
74551;SDS011;63025;55.472;38.432;2022-09-09T22:27:11;37.15;;;20.52;;
74551;SDS011;63025;55.472;38.432;2022-09-09T22:29:40;40.03;;;18.88;;
74551;SDS011;63025;55.472;38.432;2022-09-09T22:32:06;37.20;;;18.77;;
74551;SDS011;63025;55.472;38.432;2022-09-09T22:34:34;31.92;;;17.13;;
74551;SDS011;63025;55.472;38.432;2022-09-09T22:37:01;29.65;;;16.02;;
74551;SDS011;63025;55.472;38.432;2022-09-09T22:39:27;26.02;;;15.32;;
74551;SDS011;63025;55.472;38.432;2022-09-09T22:41:53;30.40;;;15.70;;
74551;SDS011;63025;55.472;38.432;2022-09-09T22:44:21;40.60;;;17.83;;
74551;SDS011;63025;55.472;38.432;2022-09-09T22:46:48;33.10;;;17.42;;
74551;SDS011;63025;55.472;38.432;2022-09-09T22:49:15;39.53;;;18.45;;
74551;SDS011;63025;55.472;38.432;2022-09-09T22:51:40;43.63;;;18.85;;
74551;SDS011;63025;55.472;38.432;2022-09-09T22:54:06;39.22;;;18.20;;
74551;SDS011;63025;55.472;38.432;2022-09-09T22:56:32;38.63;;;18.73;;
74551;SDS011;63025;55.472;38.432;2022-09-09T22:58:58;40.72;;;18.83;;
74551;SDS011;63025;55.472;38.432;2022-09-09T23:01:25;38.60;;;19.33;;
74551;SDS011;63025;55.472;38.432;2022-09-09T23:03:52;31.65;;;17.17;;
74551;SDS011;63025;55.472;38.432;2022-09-09T23:06:21;33.85;;;17.15;;
74551;SDS011;63025;55.472;38.432;2022-09-09T23:08:49;35.60;;;17.00;;
74551;SDS011;63025;55.472;38.432;2022-09-09T23:11:17;34.10;;;17.63;;
74551;SDS011;63025;55.472;38.432;2022-09-09T23:13:48;33.85;;;15.93;;
74551;SDS011;63025;55.472;38.432;2022-09-09T23:16:20;29.23;;;14.73;;
74551;SDS011;63025;55.472;38.432;2022-09-09T23:18:48;31.83;;;15.45;;
74551;SDS011;63025;55.472;38.432;2022-09-09T23:21:17;30.25;;;16.52;;
74551;SDS011;63025;55.472;38.432;2022-09-09T23:23:43;32.97;;;16.00;;
74551;SDS011;63025;55.472;38.432;2022-09-09T23:26:11;34.55;;;17.40;;
74551;SDS011;63025;55.472;38.432;2022-09-09T23:28:38;36.67;;;18.00;;
74551;SDS011;63025;55.472;38.432;2022-09-09T23:31:09;42.60;;;18.33;;
74551;SDS011;63025;55.472;38.432;2022-09-09T23:33:37;37.58;;;17.40;;
74551;SDS011;63025;55.472;38.432;2022-09-09T23:36:05;36.83;;;17.27;;
74551;SDS011;63025;55.472;38.432;2022-09-09T23:38:33;34.28;;;17.35;;
74551;SDS011;63025;55.472;38.432;2022-09-09T23:41:01;37.35;;;17.13;;
74551;SDS011;63025;55.472;38.432;2022-09-09T23:43:27;36.22;;;16.92;;
74551;SDS011;63025;55.472;38.432;2022-09-09T23:45:53;33.03;;;15.88;;
74551;SDS011;63025;55.472;38.432;2022-09-09T23:48:21;29.50;;;15.45;;
74551;SDS011;63025;55.472;38.432;2022-09-09T23:50:47;27.48;;;14.30;;
74551;SDS011;63025;55.472;38.432;2022-09-09T23:53:15;25.98;;;13.70;;
74551;SDS011;63025;55.472;38.432;2022-09-09T23:55:41;26.38;;;14.05;;
74551;SDS011;63025;55.472;38.432;2022-09-09T23:58:08;26.23;;;13.45;;
